createdAt,value
2023-05-08T00:00:43.909Z,101712.41
2023-05-08T00:03:11.604Z,101718.00
2023-05-08T00:05:41.903Z,101714.97
2023-05-08T00:08:09.586Z,101715.28
2023-05-08T00:10:38.554Z,101708.88
2023-05-08T00:13:06.461Z,101716.81
2023-05-08T00:15:34.238Z,101717.47
2023-05-08T00:18:01.907Z,101714.28
2023-05-08T00:20:29.505Z,101714.28
2023-05-08T00:22:57.882Z,101706.50
2023-05-08T00:25:26.000Z,101712.44
2023-05-08T00:27:55.048Z,101715.31
2023-05-08T00:30:23.347Z,101717.31
2023-05-08T00:32:51.058Z,101723.06
2023-05-08T00:35:18.893Z,101716.31
2023-05-08T00:37:46.576Z,101720.88
2023-05-08T00:40:14.703Z,101717.84
2023-05-08T00:42:42.604Z,101723.44
2023-05-08T00:45:12.639Z,101719.19
2023-05-08T00:47:40.847Z,101719.88
2023-05-08T00:50:10.605Z,101720.53
2023-05-08T00:52:39.446Z,101716.81
2023-05-08T00:55:07.816Z,101715.81
2023-05-08T00:57:37.809Z,101719.53
2023-05-08T01:00:07.808Z,101720.03
2023-05-08T01:02:37.069Z,101722.91
2023-05-08T01:05:05.173Z,101727.47
2023-05-08T01:07:33.657Z,101716.97
2023-05-08T01:10:01.548Z,101720.72
2023-05-08T01:12:41.837Z,101709.38
2023-05-08T01:15:13.524Z,101699.06
2023-05-08T01:17:52.576Z,101704.81
2023-05-08T01:20:31.120Z,101715.66
2023-05-08T01:23:13.572Z,101699.56
2023-05-08T01:26:16.415Z,101702.44
2023-05-08T01:29:05.304Z,101690.59
2023-05-08T01:31:44.114Z,101690.25
2023-05-08T01:34:20.868Z,101709.88
2023-05-08T01:36:53.397Z,101700.75
2023-05-08T01:39:23.680Z,101699.22
2023-05-08T01:41:59.760Z,101701.91
2023-05-08T01:44:32.530Z,101702.22
2023-05-08T01:47:06.356Z,101699.69
2023-05-08T01:49:41.088Z,101702.22
2023-05-08T01:52:14.711Z,101702.41
2023-05-08T01:54:47.677Z,101712.22
2023-05-08T01:57:17.946Z,101710.84
2023-05-08T01:59:46.823Z,101715.09
2023-05-08T02:02:15.654Z,101715.44
2023-05-08T02:04:45.970Z,101712.22
2023-05-08T02:07:14.111Z,101712.22
2023-05-08T02:09:44.290Z,101707.78
2023-05-08T02:12:14.106Z,101704.91
2023-05-08T02:14:43.559Z,101704.41
2023-05-08T02:17:13.464Z,101705.06
2023-05-08T02:19:43.598Z,101713.50
2023-05-08T02:22:13.657Z,101708.25
2023-05-08T02:24:42.755Z,101704.91
2023-05-08T02:27:12.917Z,101708.25
2023-05-08T02:29:41.142Z,101714.03
2023-05-08T02:32:09.650Z,101708.13
2023-05-08T02:34:41.045Z,101708.97
2023-05-08T02:37:15.852Z,101717.88
2023-05-08T02:39:44.843Z,101714.19
2023-05-08T02:42:12.763Z,101716.91
2023-05-08T02:44:40.576Z,101709.50
2023-05-08T02:47:20.122Z,101706.56
2023-05-08T02:49:54.110Z,101715.00
2023-05-08T02:52:30.289Z,101711.78
2023-05-08T02:55:02.206Z,101714.09
2023-05-08T02:57:38.973Z,101708.59
2023-05-08T03:00:15.533Z,101715.88
2023-05-08T03:02:49.180Z,101709.25
2023-05-08T03:05:20.665Z,101708.41
2023-05-08T03:07:54.160Z,101708.22
2023-05-08T03:10:26.220Z,101694.50
2023-05-08T03:12:56.846Z,101701.56
2023-05-08T03:15:27.243Z,101701.22
2023-05-08T03:17:58.267Z,101700.84
2023-05-08T03:20:32.222Z,101704.63
2023-05-08T03:23:03.841Z,101700.31
2023-05-08T03:25:34.978Z,101705.41
2023-05-08T03:28:04.895Z,101697.81
2023-05-08T03:30:33.579Z,101691.38
2023-05-08T03:33:04.610Z,101698.31
2023-05-08T03:35:33.044Z,101690.38
2023-05-08T03:38:02.417Z,101694.06
2023-05-08T03:40:30.445Z,101698.63
2023-05-08T03:43:01.516Z,101685.34
2023-05-08T03:45:30.207Z,101680.13
2023-05-08T03:47:59.185Z,101685.72
2023-05-08T03:50:27.144Z,101683.00
2023-05-08T03:52:55.622Z,101686.69
2023-05-08T03:55:24.613Z,101691.75
2023-05-08T03:58:00.797Z,101686.56
2023-05-08T04:00:36.504Z,101687.66
2023-05-08T04:03:14.857Z,101693.41
2023-05-08T04:05:50.760Z,101698.38
2023-05-08T04:08:23.710Z,101689.63
2023-05-08T04:10:59.833Z,101695.66
2023-05-08T04:13:31.960Z,101691.28
2023-05-08T04:16:07.568Z,101692.56
2023-05-08T04:18:38.797Z,101695.25
2023-05-08T04:21:10.518Z,101695.97
2023-05-08T04:23:41.031Z,101696.50
2023-05-08T04:26:11.976Z,101696.78
2023-05-08T04:28:40.641Z,101702.47
2023-05-08T04:31:09.329Z,101704.13
2023-05-08T04:33:37.884Z,101702.38
2023-05-08T04:36:07.849Z,101705.41
2023-05-08T04:38:37.492Z,101715.91
2023-05-08T04:41:05.489Z,101720.19
2023-05-08T04:43:35.088Z,101714.63
2023-05-08T04:46:03.329Z,101714.09
2023-05-08T04:48:33.241Z,101719.00
2023-05-08T04:51:01.228Z,101718.88
2023-05-08T04:53:29.040Z,101711.09
2023-05-08T04:55:57.592Z,101712.75
2023-05-08T04:58:25.345Z,101717.41
2023-05-08T05:00:54.234Z,101718.47
2023-05-08T05:03:22.006Z,101709.63
2023-05-08T05:05:49.599Z,101724.47
2023-05-08T05:08:17.277Z,101726.38
2023-05-08T05:10:45.024Z,101719.38
2023-05-08T05:13:12.616Z,101721.28
2023-05-08T05:15:43.141Z,101723.16
2023-05-08T05:18:12.601Z,101725.38
2023-05-08T05:20:40.612Z,101714.41
2023-05-08T05:23:08.608Z,101717.72
2023-05-08T05:25:36.499Z,101715.41
2023-05-08T05:28:04.552Z,101720.31
2023-05-08T05:30:32.461Z,101719.16
2023-05-08T05:33:00.548Z,101724.25
2023-05-08T05:35:30.032Z,101728.03
2023-05-08T05:37:59.090Z,101729.97
2023-05-08T05:40:26.747Z,101737.44
2023-05-08T05:42:54.347Z,101734.25
2023-05-08T05:45:22.117Z,101734.09
2023-05-08T05:47:50.708Z,101732.38
2023-05-08T05:50:19.119Z,101733.91
2023-05-08T05:52:48.127Z,101731.56
2023-05-08T05:55:17.151Z,101734.81
2023-05-08T05:57:45.810Z,101737.81
2023-05-08T06:00:14.044Z,101738.16
2023-05-08T06:02:42.472Z,101737.97
2023-05-08T06:05:11.452Z,101732.94
2023-05-08T06:07:39.739Z,101737.19
2023-05-08T06:10:09.855Z,101736.38
2023-05-08T06:12:37.565Z,101743.50
2023-05-08T06:15:06.421Z,101740.31
2023-05-08T06:17:34.146Z,101743.69
2023-05-08T06:20:01.826Z,101740.31
2023-05-08T06:22:29.968Z,101741.31
2023-05-08T06:24:57.689Z,101747.75
2023-05-08T06:27:26.925Z,101745.41
2023-05-08T06:29:54.576Z,101747.94
2023-05-08T06:32:22.994Z,101746.06
2023-05-08T06:34:50.662Z,101746.22
2023-05-08T06:37:28.773Z,101747.75
2023-05-08T06:40:04.255Z,101748.28
2023-05-08T06:42:41.053Z,101747.09
2023-05-08T06:45:09.734Z,101743.88
2023-05-08T06:47:37.797Z,101736.78
2023-05-08T06:50:06.730Z,101736.78
2023-05-08T06:52:34.332Z,101747.63
2023-05-08T06:55:02.156Z,101742.34
2023-05-08T06:57:30.349Z,101748.41
2023-05-08T06:59:59.373Z,101754.03
2023-05-08T07:02:27.149Z,101748.25
2023-05-08T07:04:54.900Z,101749.44
2023-05-08T07:07:22.538Z,101752.31
2023-05-08T07:09:50.250Z,101747.53
2023-05-08T07:12:17.936Z,101740.38
2023-05-08T07:14:45.643Z,101741.06
2023-05-08T07:17:15.654Z,101739.88
2023-05-08T07:19:43.250Z,101744.31
2023-05-08T07:22:10.991Z,101740.38
2023-05-08T07:24:38.621Z,101742.56
2023-05-08T07:27:06.446Z,101737.09
2023-05-08T07:29:35.967Z,101743.84
2023-05-08T07:32:03.681Z,101738.50
2023-05-08T07:34:34.480Z,101735.28
2023-05-08T07:37:02.641Z,101731.88
2023-05-08T07:39:30.314Z,101736.22
2023-05-08T07:41:57.932Z,101731.75
2023-05-08T07:44:25.731Z,101742.66
2023-05-08T07:46:53.463Z,101741.22
2023-05-08T07:49:21.156Z,101736.16
2023-05-08T07:51:50.096Z,101736.53
2023-05-08T07:54:17.724Z,101735.63
2023-05-08T07:56:45.469Z,101738.69
2023-05-08T07:59:13.098Z,101739.44
2023-05-08T08:01:42.563Z,101747.75
2023-05-08T08:04:10.279Z,101740.91
2023-05-08T08:06:38.057Z,101733.41
2023-05-08T08:09:07.015Z,101753.00
2023-05-08T08:11:34.927Z,101750.97
2023-05-08T08:14:16.299Z,101738.03
2023-05-08T08:16:44.199Z,101738.03
2023-05-08T08:19:12.013Z,101740.31
2023-05-08T08:21:43.239Z,101733.22
2023-05-08T08:24:12.202Z,101739.66
2023-05-08T08:26:39.799Z,101735.28
2023-05-08T08:29:07.398Z,101733.88
2023-05-08T08:31:35.142Z,101732.66
2023-05-08T08:34:02.972Z,101721.41
2023-05-08T08:36:30.686Z,101729.84
2023-05-08T08:38:58.285Z,101728.19
2023-05-08T08:41:27.965Z,101739.59
2023-05-08T08:43:55.791Z,101730.03
2023-05-08T08:46:25.664Z,101733.94
2023-05-08T08:48:55.603Z,101723.81
2023-05-08T08:51:28.859Z,101714.81
2023-05-08T08:54:05.228Z,101720.41
2023-05-08T08:56:37.015Z,101721.91
2023-05-08T08:59:06.379Z,101727.53
2023-05-08T09:01:36.877Z,101725.84
2023-05-08T09:04:05.413Z,101717.06
2023-05-08T09:06:36.985Z,101717.88
2023-05-08T09:09:05.522Z,101725.25
2023-05-08T09:11:34.595Z,101705.72
2023-05-08T09:14:03.462Z,101700.38
2023-05-08T09:16:31.298Z,101716.31
2023-05-08T09:18:58.986Z,101697.06
2023-05-08T09:21:28.283Z,101702.63
2023-05-08T09:23:57.286Z,101694.53
2023-05-08T09:26:29.162Z,101699.59
2023-05-08T09:29:11.406Z,101699.06
2023-05-08T09:31:40.726Z,101697.97
2023-05-08T09:34:08.820Z,101712.88
2023-05-08T09:36:36.504Z,101705.16
2023-05-08T09:39:04.663Z,101694.50
2023-05-08T09:41:32.369Z,101685.41
2023-05-08T09:44:04.788Z,101692.50
2023-05-08T09:46:34.927Z,101700.97
2023-05-08T09:49:04.647Z,101695.78
2023-05-08T09:51:33.232Z,101708.53
2023-05-08T09:54:04.052Z,101692.22
2023-05-08T09:56:36.624Z,101701.28
2023-05-08T09:59:06.367Z,101693.31
2023-05-08T10:01:36.786Z,101695.81
2023-05-08T10:04:06.020Z,101684.16
2023-05-08T10:06:34.487Z,101678.53
2023-05-08T10:09:09.019Z,101686.41
2023-05-08T10:11:37.164Z,101666.75
2023-05-08T10:14:04.799Z,101681.88
2023-05-08T10:16:42.432Z,101685.22
2023-05-08T10:19:14.884Z,101678.69
2023-05-08T10:21:45.125Z,101690.72
2023-05-08T10:24:16.353Z,101687.38
2023-05-08T10:26:53.826Z,101688.44
2023-05-08T10:29:35.226Z,101686.97
2023-05-08T10:32:10.197Z,101692.84
2023-05-08T10:34:42.136Z,101687.41
2023-05-08T10:37:11.022Z,101684.91
2023-05-08T10:39:39.591Z,101671.91
2023-05-08T10:42:08.202Z,101666.91
2023-05-08T10:44:35.943Z,101676.13
2023-05-08T10:47:12.956Z,101680.31
2023-05-08T10:49:48.874Z,101670.03
2023-05-08T10:52:21.958Z,101671.09
2023-05-08T10:55:10.243Z,101667.50
2023-05-08T10:57:37.907Z,101671.91
2023-05-08T11:00:06.763Z,101663.94
2023-05-08T11:02:37.826Z,101659.34
2023-05-08T11:05:18.829Z,101667.75
2023-05-08T11:07:56.737Z,101667.31
2023-05-08T11:10:31.208Z,101659.56
2023-05-08T11:12:59.799Z,101661.47
2023-05-08T11:15:39.258Z,101660.25
2023-05-08T11:18:11.344Z,101660.25
2023-05-08T11:20:40.230Z,101655.22
2023-05-08T11:23:22.791Z,101656.03
2023-05-08T11:26:01.295Z,101649.97
2023-05-08T11:28:29.505Z,101651.22
2023-05-08T11:30:57.428Z,101658.78
2023-05-08T11:33:31.465Z,101650.56
2023-05-08T11:36:01.101Z,101651.84
2023-05-08T11:38:31.479Z,101648.22
2023-05-08T11:41:07.024Z,101650.94
2023-05-08T11:44:09.272Z,101637.66
2023-05-08T11:46:41.214Z,101637.41
2023-05-08T11:49:15.429Z,101641.34
2023-05-08T11:51:46.790Z,101635.59
2023-05-08T11:54:16.685Z,101643.53
2023-05-08T11:56:47.905Z,101636.75
2023-05-08T11:59:16.749Z,101636.50
2023-05-08T12:01:48.506Z,101643.34
2023-05-08T12:04:25.881Z,101638.31
2023-05-08T12:06:58.450Z,101649.34
2023-05-08T12:09:26.126Z,101652.84
2023-05-08T12:11:58.215Z,101652.25
2023-05-08T12:14:25.875Z,101650.91
2023-05-08T12:16:53.647Z,101645.94
2023-05-08T12:19:21.374Z,101654.34
2023-05-08T12:21:51.257Z,101644.81
2023-05-08T12:24:22.899Z,101640.31
2023-05-08T12:26:54.011Z,101636.28
2023-05-08T12:29:21.625Z,101638.03
2023-05-08T12:31:49.707Z,101637.00
2023-05-08T12:34:17.581Z,101639.84
2023-05-08T12:36:45.349Z,101637.91
2023-05-08T12:39:15.684Z,101642.69
2023-05-08T12:41:47.352Z,101638.94
2023-05-08T12:44:23.927Z,101636.25
2023-05-08T12:46:52.452Z,101638.66
2023-05-08T12:49:31.171Z,101628.81
2023-05-08T12:52:06.742Z,101646.34
2023-05-08T12:54:37.865Z,101643.84
2023-05-08T12:57:12.764Z,101641.34
2023-05-08T12:59:41.106Z,101644.34
2023-05-08T13:02:16.978Z,101631.50
2023-05-08T13:04:45.549Z,101634.50
2023-05-08T13:07:13.602Z,101633.66
2023-05-08T13:09:57.314Z,101623.63
2023-05-08T13:12:25.153Z,101622.97
2023-05-08T13:14:52.842Z,101626.69
2023-05-08T13:17:20.565Z,101616.63
2023-05-08T13:19:48.321Z,101618.91
2023-05-08T13:22:15.927Z,101608.38
2023-05-08T13:24:44.804Z,101617.38
2023-05-08T13:27:13.561Z,101607.69
2023-05-08T13:29:41.416Z,101607.69
2023-05-08T13:32:09.096Z,101600.00
2023-05-08T13:34:41.480Z,101591.72
2023-05-08T13:37:15.247Z,101587.41
2023-05-08T13:39:43.249Z,101582.91
2023-05-08T13:42:12.199Z,101580.34
2023-05-08T13:44:40.570Z,101580.06
2023-05-08T13:47:08.429Z,101579.22
2023-05-08T13:49:36.066Z,101575.91
2023-05-08T13:52:03.899Z,101574.22
2023-05-08T13:54:31.662Z,101573.41
2023-05-08T13:56:59.364Z,101569.44
2023-05-08T13:59:28.922Z,101576.13
2023-05-08T14:01:56.719Z,101565.72
2023-05-08T14:04:24.352Z,101563.22
2023-05-08T14:06:51.970Z,101561.88
2023-05-08T14:09:19.681Z,101558.97
2023-05-08T14:11:47.309Z,101563.97
2023-05-08T14:14:14.934Z,101560.16
2023-05-08T14:16:43.964Z,101551.84
2023-05-08T14:19:11.608Z,101554.69
2023-05-08T14:21:39.444Z,101548.84
2023-05-08T14:24:07.529Z,101549.66
2023-05-08T14:26:35.201Z,101543.72
2023-05-08T14:29:02.889Z,101553.31
2023-05-08T14:31:30.570Z,101549.53
2023-05-08T14:33:59.678Z,101538.38
2023-05-08T14:36:27.846Z,101542.63
2023-05-08T14:38:55.516Z,101534.09
2023-05-08T14:41:23.270Z,101538.41
2023-05-08T14:43:50.881Z,101537.59
2023-05-08T14:46:18.646Z,101535.84
2023-05-08T14:48:46.249Z,101524.59
2023-05-08T14:51:15.312Z,101530.31
2023-05-08T14:53:43.097Z,101528.91
2023-05-08T14:56:11.114Z,101522.81
2023-05-08T14:58:39.213Z,101514.13
2023-05-08T15:01:07.068Z,101509.47
2023-05-08T15:03:34.859Z,101517.59
2023-05-08T15:06:02.648Z,101515.22
2023-05-08T15:08:31.902Z,101518.16
2023-05-08T15:10:59.886Z,101512.91
2023-05-08T15:13:27.670Z,101516.25
2023-05-08T15:15:55.508Z,101518.28
2023-05-08T15:18:24.589Z,101516.88
2023-05-08T15:20:52.276Z,101518.53
2023-05-08T15:23:20.367Z,101515.06
2023-05-08T15:25:49.575Z,101513.94
2023-05-08T15:28:17.167Z,101512.91
2023-05-08T15:30:46.744Z,101512.56
2023-05-08T15:33:14.432Z,101507.38
2023-05-08T15:35:43.031Z,101503.38
2023-05-08T15:38:11.713Z,101502.50
2023-05-08T15:40:39.680Z,101507.22
2023-05-08T15:43:08.635Z,101504.09
2023-05-08T15:45:36.389Z,101501.97
2023-05-08T15:48:04.089Z,101493.94
2023-05-08T15:50:31.685Z,101495.38
2023-05-08T15:53:00.048Z,101494.75
2023-05-08T15:55:28.056Z,101492.50
2023-05-08T15:57:55.795Z,101497.38
2023-05-08T16:00:30.161Z,101503.22
2023-05-08T16:03:04.873Z,101494.88
2023-05-08T16:05:32.661Z,101499.53
2023-05-08T16:08:00.402Z,101498.44
2023-05-08T16:10:28.075Z,101489.34
2023-05-08T16:12:55.811Z,101489.59
2023-05-08T16:15:24.758Z,101488.53
2023-05-08T16:17:52.476Z,101493.91
2023-05-08T16:20:20.454Z,101491.84
2023-05-08T16:22:48.252Z,101495.91
2023-05-08T16:25:15.884Z,101491.94
2023-05-08T16:27:43.562Z,101494.94
2023-05-08T16:30:12.250Z,101496.47
2023-05-08T16:32:41.344Z,101490.75
2023-05-08T16:35:09.730Z,101491.38
2023-05-08T16:37:37.642Z,101493.06
2023-05-08T16:40:06.781Z,101492.53
2023-05-08T16:42:34.423Z,101485.47
2023-05-08T16:45:02.080Z,101491.78
2023-05-08T16:47:29.868Z,101489.91
2023-05-08T16:49:58.952Z,101489.28
2023-05-08T16:52:26.751Z,101493.56
2023-05-08T16:54:54.472Z,101492.09
2023-05-08T16:57:22.137Z,101490.22
2023-05-08T16:59:50.141Z,101492.81
2023-05-08T17:02:19.027Z,101490.31
2023-05-08T17:04:47.924Z,101492.06
2023-05-08T17:07:17.945Z,101495.84
2023-05-08T17:09:48.360Z,101496.81
2023-05-08T17:12:16.008Z,101495.28
2023-05-08T17:14:43.956Z,101497.03
2023-05-08T17:17:11.755Z,101502.53
2023-05-08T17:19:39.639Z,101501.53
2023-05-08T17:22:07.322Z,101497.97
2023-05-08T17:24:37.861Z,101484.50
2023-05-08T17:27:07.885Z,101494.25
2023-05-08T17:29:36.273Z,101495.06
2023-05-08T17:32:04.557Z,101495.84
2023-05-08T17:34:32.398Z,101483.47
2023-05-08T17:37:00.220Z,101498.22
2023-05-08T17:39:28.024Z,101500.13
2023-05-08T17:41:57.209Z,101494.72
2023-05-08T17:44:25.112Z,101486.59
2023-05-08T17:46:53.004Z,101492.69
2023-05-08T17:49:21.151Z,101494.81
2023-05-08T17:51:49.112Z,101495.28
2023-05-08T17:54:16.782Z,101496.94
2023-05-08T17:56:45.376Z,101497.78
2023-05-08T17:59:15.122Z,101500.38
2023-05-08T18:01:43.345Z,101499.53
2023-05-08T18:04:11.378Z,101487.88
2023-05-08T18:06:39.244Z,101498.25
2023-05-08T18:09:07.189Z,101495.75
2023-05-08T18:11:34.821Z,101497.78
2023-05-08T18:14:02.644Z,101500.13
2023-05-08T18:16:31.885Z,101496.41
2023-05-08T18:18:59.778Z,101505.69
2023-05-08T18:21:29.855Z,101500.63
2023-05-08T18:23:57.637Z,101494.78
2023-05-08T18:26:25.448Z,101499.50
2023-05-08T18:28:53.456Z,101514.91
2023-05-08T18:31:21.445Z,101506.75
2023-05-08T18:33:50.952Z,101511.00
2023-05-08T18:36:19.167Z,101513.25
2023-05-08T18:38:46.988Z,101513.09
2023-05-08T18:41:14.925Z,101508.84
2023-05-08T18:43:43.061Z,101508.53
2023-05-08T18:46:12.401Z,101514.09
2023-05-08T18:48:40.809Z,101511.56
2023-05-08T18:51:10.526Z,101506.09
2023-05-08T18:53:39.027Z,101511.19
2023-05-08T18:56:06.822Z,101503.59
2023-05-08T18:58:34.826Z,101507.63
2023-05-08T19:01:03.874Z,101511.06
2023-05-08T19:03:31.859Z,101514.50
2023-05-08T19:06:00.899Z,101508.28
2023-05-08T19:08:29.850Z,101507.06
2023-05-08T19:10:57.975Z,101524.75
2023-05-08T19:13:26.033Z,101529.00
2023-05-08T19:15:54.295Z,101518.72
2023-05-08T19:18:22.294Z,101512.06
2023-05-08T19:20:50.663Z,101518.22
2023-05-08T19:23:18.614Z,101517.56
2023-05-08T19:25:47.631Z,101522.81
2023-05-08T19:28:15.728Z,101513.63
2023-05-08T19:30:43.418Z,101514.28
2023-05-08T19:33:11.254Z,101515.56
2023-05-08T19:35:38.871Z,101515.38
2023-05-08T19:38:06.807Z,101514.06
2023-05-08T19:40:41.300Z,101513.84
2023-05-08T19:43:21.399Z,101517.19
2023-05-08T19:45:49.373Z,101519.09
2023-05-08T19:48:19.496Z,101519.13
2023-05-08T19:50:47.653Z,101518.03
2023-05-08T19:53:15.558Z,101519.53
2023-05-08T19:55:43.387Z,101521.25
2023-05-08T19:58:11.098Z,101518.13
2023-05-08T20:00:40.416Z,101512.66
2023-05-08T20:03:08.147Z,101503.63
2023-05-08T20:05:36.110Z,101507.44
2023-05-08T20:08:03.938Z,101510.69
2023-05-08T20:10:31.631Z,101509.44
2023-05-08T20:12:59.246Z,101509.03
2023-05-08T20:15:27.231Z,101507.97
2023-05-08T20:17:56.370Z,101506.31
2023-05-08T20:20:24.681Z,101511.19
2023-05-08T20:22:52.725Z,101505.94
2023-05-08T20:25:20.538Z,101508.44
2023-05-08T20:27:48.512Z,101496.91
2023-05-08T20:30:16.472Z,101495.25
2023-05-08T20:32:44.477Z,101505.56
2023-05-08T20:35:14.655Z,101509.38
2023-05-08T20:37:46.176Z,101499.50
2023-05-08T20:40:15.036Z,101498.03
2023-05-08T20:42:43.331Z,101500.34
2023-05-08T20:45:12.097Z,101490.06
2023-05-08T20:47:40.068Z,101496.81
2023-05-08T20:50:08.600Z,101490.53
2023-05-08T20:52:38.878Z,101495.38
2023-05-08T20:55:09.186Z,101493.88
2023-05-08T20:57:37.032Z,101500.19
2023-05-08T21:00:06.040Z,101495.59
2023-05-08T21:02:34.004Z,101503.38
2023-05-08T21:05:01.739Z,101499.38
2023-05-08T21:07:29.614Z,101501.25
2023-05-08T21:09:59.755Z,101502.69
2023-05-08T21:12:27.470Z,101509.44
2023-05-08T21:14:55.234Z,101503.34
2023-05-08T21:17:22.951Z,101498.75
2023-05-08T21:19:50.840Z,101500.00
2023-05-08T21:22:18.528Z,101503.56
2023-05-08T21:24:46.152Z,101497.28
2023-05-08T21:27:15.124Z,101496.84
2023-05-08T21:29:42.747Z,101486.34
2023-05-08T21:32:10.559Z,101482.59
2023-05-08T21:34:38.210Z,101489.31
2023-05-08T21:37:06.021Z,101486.16
2023-05-08T21:39:33.645Z,101482.19
2023-05-08T21:42:02.072Z,101479.25
2023-05-08T21:44:31.374Z,101468.13
2023-05-08T21:46:59.068Z,101473.13
2023-05-08T21:49:26.711Z,101462.22
2023-05-08T21:51:54.619Z,101465.38
2023-05-08T21:54:24.133Z,101459.09
2023-05-08T21:56:51.851Z,101468.13
2023-05-08T21:59:19.864Z,101472.53
2023-05-08T22:01:48.938Z,101466.03
2023-05-08T22:04:16.610Z,101467.28
2023-05-08T22:06:44.543Z,101463.69
2023-05-08T22:09:12.229Z,101462.66
2023-05-08T22:11:40.092Z,101460.97
2023-05-08T22:14:07.800Z,101457.41
2023-05-08T22:16:35.808Z,101454.47
2023-05-08T22:19:04.863Z,101447.97
2023-05-08T22:21:32.901Z,101443.34
2023-05-08T22:24:00.752Z,101440.84
2023-05-08T22:26:29.137Z,101442.31
2023-05-08T22:28:57.077Z,101446.28
2023-05-08T22:31:24.792Z,101438.09
2023-05-08T22:33:52.477Z,101439.81
2023-05-08T22:36:23.839Z,101438.94
2023-05-08T22:38:51.647Z,101437.25
2023-05-08T22:41:19.357Z,101437.25
2023-05-08T22:43:47.017Z,101437.25
2023-05-08T22:46:14.867Z,101430.97
2023-05-08T22:48:42.730Z,101434.75
2023-05-08T22:51:10.749Z,101433.25
2023-05-08T22:53:39.818Z,101433.47
2023-05-08T22:56:07.784Z,101433.91
2023-05-08T22:58:35.598Z,101432.84
2023-05-08T23:01:03.455Z,101427.38
2023-05-08T23:03:31.717Z,101431.78
2023-05-08T23:05:59.375Z,101426.34
2023-05-08T23:08:26.986Z,101425.72
2023-05-08T23:10:56.087Z,101429.03
2023-05-08T23:13:23.827Z,101427.75
2023-05-08T23:15:51.487Z,101420.19
2023-05-08T23:18:19.164Z,101415.56
2023-05-08T23:20:46.811Z,101414.13
2023-05-08T23:23:14.531Z,101418.31
2023-05-08T23:25:42.196Z,101407.84
2023-05-08T23:28:11.173Z,101413.69
2023-05-08T23:30:39.112Z,101402.19
2023-05-08T23:33:06.790Z,101398.38
2023-05-08T23:35:34.444Z,101406.75
2023-05-08T23:38:02.135Z,101402.16
2023-05-08T23:40:29.984Z,101403.22
2023-05-08T23:42:57.578Z,101394.81
2023-05-08T23:45:26.525Z,101395.63
2023-05-08T23:47:54.376Z,101391.44
2023-05-08T23:50:22.252Z,101387.84
2023-05-08T23:52:50.956Z,101389.09
2023-05-08T23:55:18.680Z,101388.47
2023-05-08T23:57:46.400Z,101384.91
